sensor_id;sensor_type;location;lat;lon;timestamp;P1;durP1;ratioP1;P2;durP2;ratioP2
3309;SDS011;1667;53.238;10.394;2023-12-04T00:02:25;28.53;;;13.73;;
3309;SDS011;1667;53.238;10.394;2023-12-04T00:07:24;16.70;;;8.73;;
3309;SDS011;1667;53.238;10.394;2023-12-04T00:12:23;18.53;;;8.63;;
3309;SDS011;1667;53.238;10.394;2023-12-04T00:17:22;25.10;;;11.23;;
3309;SDS011;1667;53.238;10.394;2023-12-04T00:22:23;26.03;;;11.40;;
3309;SDS011;1667;53.238;10.394;2023-12-04T00:27:22;23.73;;;9.07;;
3309;SDS011;1667;53.238;10.394;2023-12-04T00:32:24;28.40;;;13.20;;
3309;SDS011;1667;53.238;10.394;2023-12-04T00:37:24;22.43;;;9.20;;
3309;SDS011;1667;53.238;10.394;2023-12-04T00:42:24;16.80;;;9.30;;
3309;SDS011;1667;53.238;10.394;2023-12-04T00:47:23;27.57;;;12.83;;
3309;SDS011;1667;53.238;10.394;2023-12-04T00:52:23;24.47;;;12.10;;
3309;SDS011;1667;53.238;10.394;2023-12-04T00:57:23;21.47;;;9.47;;
3309;SDS011;1667;53.238;10.394;2023-12-04T01:02:22;27.50;;;11.13;;
3309;SDS011;1667;53.238;10.394;2023-12-04T01:07:21;31.93;;;15.77;;
3309;SDS011;1667;53.238;10.394;2023-12-04T01:12:22;20.10;;;9.63;;
3309;SDS011;1667;53.238;10.394;2023-12-04T01:17:21;23.13;;;8.87;;
3309;SDS011;1667;53.238;10.394;2023-12-04T01:22:20;26.67;;;13.33;;
3309;SDS011;1667;53.238;10.394;2023-12-04T01:27:19;31.23;;;13.23;;
3309;SDS011;1667;53.238;10.394;2023-12-04T01:32:19;17.90;;;8.20;;
3309;SDS011;1667;53.238;10.394;2023-12-04T01:37:18;31.20;;;13.33;;
3309;SDS011;1667;53.238;10.394;2023-12-04T01:42:17;24.17;;;12.10;;
3309;SDS011;1667;53.238;10.394;2023-12-04T01:47:18;24.80;;;11.13;;
3309;SDS011;1667;53.238;10.394;2023-12-04T01:52:18;14.77;;;7.20;;
3309;SDS011;1667;53.238;10.394;2023-12-04T01:57:17;16.27;;;8.70;;
3309;SDS011;1667;53.238;10.394;2023-12-04T02:02:18;25.50;;;11.60;;
3309;SDS011;1667;53.238;10.394;2023-12-04T02:07:18;13.80;;;7.50;;
3309;SDS011;1667;53.238;10.394;2023-12-04T02:12:17;12.93;;;7.63;;
3309;SDS011;1667;53.238;10.394;2023-12-04T02:17:16;20.50;;;9.00;;
3309;SDS011;1667;53.238;10.394;2023-12-04T02:22:17;22.50;;;9.60;;
3309;SDS011;1667;53.238;10.394;2023-12-04T02:27:20;23.30;;;10.97;;
3309;SDS011;1667;53.238;10.394;2023-12-04T02:32:21;23.90;;;11.20;;
3309;SDS011;1667;53.238;10.394;2023-12-04T02:37:21;25.50;;;11.77;;
3309;SDS011;1667;53.238;10.394;2023-12-04T02:42:23;18.33;;;8.40;;
3309;SDS011;1667;53.238;10.394;2023-12-04T02:47:23;16.60;;;7.20;;
3309;SDS011;1667;53.238;10.394;2023-12-04T02:52:22;12.67;;;6.67;;
3309;SDS011;1667;53.238;10.394;2023-12-04T02:57:20;23.90;;;10.30;;
3309;SDS011;1667;53.238;10.394;2023-12-04T03:02:22;11.63;;;7.07;;
3309;SDS011;1667;53.238;10.394;2023-12-04T03:07:20;22.00;;;10.33;;
3309;SDS011;1667;53.238;10.394;2023-12-04T03:12:20;21.93;;;10.57;;
3309;SDS011;1667;53.238;10.394;2023-12-04T03:17:19;26.97;;;11.93;;
3309;SDS011;1667;53.238;10.394;2023-12-04T03:22:43;18.77;;;8.90;;
3309;SDS011;1667;53.238;10.394;2023-12-04T03:27:42;20.30;;;11.23;;
3309;SDS011;1667;53.238;10.394;2023-12-04T03:32:42;17.17;;;9.23;;
3309;SDS011;1667;53.238;10.394;2023-12-04T03:37:41;16.87;;;6.30;;
3309;SDS011;1667;53.238;10.394;2023-12-04T03:42:40;20.77;;;10.10;;
3309;SDS011;1667;53.238;10.394;2023-12-04T03:53:04;15.73;;;7.20;;
3309;SDS011;1667;53.238;10.394;2023-12-04T03:58:03;14.63;;;7.97;;
3309;SDS011;1667;53.238;10.394;2023-12-04T04:03:02;20.97;;;10.27;;
3309;SDS011;1667;53.238;10.394;2023-12-04T04:08:03;13.93;;;6.70;;
3309;SDS011;1667;53.238;10.394;2023-12-04T04:13:04;15.20;;;6.70;;
3309;SDS011;1667;53.238;10.394;2023-12-04T04:18:03;16.73;;;8.13;;
3309;SDS011;1667;53.238;10.394;2023-12-04T04:23:03;12.80;;;6.77;;
3309;SDS011;1667;53.238;10.394;2023-12-04T04:28:02;16.83;;;9.43;;
3309;SDS011;1667;53.238;10.394;2023-12-04T04:33:01;16.73;;;8.10;;
3309;SDS011;1667;53.238;10.394;2023-12-04T04:38:01;14.90;;;7.60;;
3309;SDS011;1667;53.238;10.394;2023-12-04T04:43:01;16.30;;;7.57;;
3309;SDS011;1667;53.238;10.394;2023-12-04T04:48:00;17.37;;;8.77;;
3309;SDS011;1667;53.238;10.394;2023-12-04T04:52:59;17.53;;;8.37;;
3309;SDS011;1667;53.238;10.394;2023-12-04T04:57:59;18.33;;;9.33;;
3309;SDS011;1667;53.238;10.394;2023-12-04T05:02:59;21.40;;;9.80;;
3309;SDS011;1667;53.238;10.394;2023-12-04T05:07:58;16.27;;;7.00;;
3309;SDS011;1667;53.238;10.394;2023-12-04T05:12:57;18.73;;;8.83;;
3309;SDS011;1667;53.238;10.394;2023-12-04T05:17:57;22.20;;;9.97;;
3309;SDS011;1667;53.238;10.394;2023-12-04T05:22:56;16.97;;;7.43;;
3309;SDS011;1667;53.238;10.394;2023-12-04T05:27:55;15.07;;;7.00;;
3309;SDS011;1667;53.238;10.394;2023-12-04T05:32:54;14.80;;;9.00;;
3309;SDS011;1667;53.238;10.394;2023-12-04T05:37:54;16.47;;;7.70;;
3309;SDS011;1667;53.238;10.394;2023-12-04T05:42:53;17.53;;;7.90;;
3309;SDS011;1667;53.238;10.394;2023-12-04T05:47:51;25.07;;;11.10;;
3309;SDS011;1667;53.238;10.394;2023-12-04T05:52:50;19.63;;;8.23;;
3309;SDS011;1667;53.238;10.394;2023-12-04T05:57:51;31.40;;;12.57;;
3309;SDS011;1667;53.238;10.394;2023-12-04T06:02:50;20.10;;;9.10;;
3309;SDS011;1667;53.238;10.394;2023-12-04T06:07:49;15.90;;;7.90;;
3309;SDS011;1667;53.238;10.394;2023-12-04T06:12:48;18.07;;;9.63;;
3309;SDS011;1667;53.238;10.394;2023-12-04T06:17:48;19.17;;;8.70;;
3309;SDS011;1667;53.238;10.394;2023-12-04T06:22:47;17.37;;;8.40;;
3309;SDS011;1667;53.238;10.394;2023-12-04T06:27:47;12.57;;;7.47;;
3309;SDS011;1667;53.238;10.394;2023-12-04T06:32:47;15.60;;;6.03;;
3309;SDS011;1667;53.238;10.394;2023-12-04T06:37:48;14.77;;;6.80;;
3309;SDS011;1667;53.238;10.394;2023-12-04T06:42:47;11.07;;;5.47;;
3309;SDS011;1667;53.238;10.394;2023-12-04T06:47:49;16.90;;;9.10;;
3309;SDS011;1667;53.238;10.394;2023-12-04T06:52:48;22.70;;;11.43;;
3309;SDS011;1667;53.238;10.394;2023-12-04T06:57:48;24.20;;;11.73;;
3309;SDS011;1667;53.238;10.394;2023-12-04T07:02:48;20.10;;;9.30;;
3309;SDS011;1667;53.238;10.394;2023-12-04T07:07:47;15.00;;;6.20;;
3309;SDS011;1667;53.238;10.394;2023-12-04T07:12:46;14.63;;;6.57;;
3309;SDS011;1667;53.238;10.394;2023-12-04T07:17:45;16.43;;;7.00;;
3309;SDS011;1667;53.238;10.394;2023-12-04T07:22:46;17.07;;;7.57;;
3309;SDS011;1667;53.238;10.394;2023-12-04T07:27:45;19.23;;;9.53;;
3309;SDS011;1667;53.238;10.394;2023-12-04T07:32:44;19.97;;;10.00;;
3309;SDS011;1667;53.238;10.394;2023-12-04T07:37:43;12.70;;;6.70;;
3309;SDS011;1667;53.238;10.394;2023-12-04T07:42:44;10.50;;;6.60;;
3309;SDS011;1667;53.238;10.394;2023-12-04T07:47:43;15.63;;;6.50;;
3309;SDS011;1667;53.238;10.394;2023-12-04T07:52:42;12.07;;;7.13;;
3309;SDS011;1667;53.238;10.394;2023-12-04T07:57:41;17.13;;;9.20;;
3309;SDS011;1667;53.238;10.394;2023-12-04T08:02:41;19.90;;;9.20;;
3309;SDS011;1667;53.238;10.394;2023-12-04T08:07:42;13.70;;;7.33;;
3309;SDS011;1667;53.238;10.394;2023-12-04T08:12:43;11.13;;;5.83;;
3309;SDS011;1667;53.238;10.394;2023-12-04T08:17:44;12.37;;;6.47;;
3309;SDS011;1667;53.238;10.394;2023-12-04T08:22:43;16.23;;;8.60;;
3309;SDS011;1667;53.238;10.394;2023-12-04T08:27:42;18.20;;;8.40;;
3309;SDS011;1667;53.238;10.394;2023-12-04T08:32:41;18.03;;;9.07;;
3309;SDS011;1667;53.238;10.394;2023-12-04T08:37:42;17.23;;;7.40;;
3309;SDS011;1667;53.238;10.394;2023-12-04T08:42:41;14.10;;;6.93;;
3309;SDS011;1667;53.238;10.394;2023-12-04T08:47:41;9.47;;;5.73;;
3309;SDS011;1667;53.238;10.394;2023-12-04T08:52:41;14.47;;;6.60;;
3309;SDS011;1667;53.238;10.394;2023-12-04T08:57:40;10.50;;;5.60;;
3309;SDS011;1667;53.238;10.394;2023-12-04T09:02:39;14.90;;;5.90;;
3309;SDS011;1667;53.238;10.394;2023-12-04T09:07:46;12.03;;;5.80;;
3309;SDS011;1667;53.238;10.394;2023-12-04T09:13:06;11.17;;;4.67;;
3309;SDS011;1667;53.238;10.394;2023-12-04T09:18:05;13.97;;;5.90;;
3309;SDS011;1667;53.238;10.394;2023-12-04T09:23:05;9.73;;;4.47;;
3309;SDS011;1667;53.238;10.394;2023-12-04T09:28:05;3.83;;;2.37;;
3309;SDS011;1667;53.238;10.394;2023-12-04T09:33:04;9.87;;;4.47;;
3309;SDS011;1667;53.238;10.394;2023-12-04T09:38:03;12.67;;;6.17;;
3309;SDS011;1667;53.238;10.394;2023-12-04T09:43:03;8.23;;;3.73;;
3309;SDS011;1667;53.238;10.394;2023-12-04T09:48:04;10.20;;;6.00;;
3309;SDS011;1667;53.238;10.394;2023-12-04T09:53:08;3.73;;;2.80;;
3309;SDS011;1667;53.238;10.394;2023-12-04T09:58:10;7.80;;;4.07;;
3309;SDS011;1667;53.238;10.394;2023-12-04T10:03:13;13.33;;;7.07;;
3309;SDS011;1667;53.238;10.394;2023-12-04T10:08:13;6.80;;;5.00;;
3309;SDS011;1667;53.238;10.394;2023-12-04T10:13:14;20.83;;;9.13;;
3309;SDS011;1667;53.238;10.394;2023-12-04T10:18:33;16.20;;;8.20;;
3309;SDS011;1667;53.238;10.394;2023-12-04T10:23:37;12.77;;;6.93;;
3309;SDS011;1667;53.238;10.394;2023-12-04T10:28:37;15.57;;;9.00;;
3309;SDS011;1667;53.238;10.394;2023-12-04T10:33:37;15.50;;;7.63;;
3309;SDS011;1667;53.238;10.394;2023-12-04T10:38:37;14.03;;;7.20;;
3309;SDS011;1667;53.238;10.394;2023-12-04T10:43:35;12.10;;;6.40;;
3309;SDS011;1667;53.238;10.394;2023-12-04T10:48:53;15.33;;;8.10;;
3309;SDS011;1667;53.238;10.394;2023-12-04T10:53:54;13.23;;;7.30;;
3309;SDS011;1667;53.238;10.394;2023-12-04T10:58:53;12.50;;;6.77;;
3309;SDS011;1667;53.238;10.394;2023-12-04T11:03:56;5.60;;;3.40;;
3309;SDS011;1667;53.238;10.394;2023-12-04T11:08:59;11.87;;;4.93;;
3309;SDS011;1667;53.238;10.394;2023-12-04T11:14:00;8.37;;;4.63;;
3309;SDS011;1667;53.238;10.394;2023-12-04T11:19:03;16.00;;;7.27;;
3309;SDS011;1667;53.238;10.394;2023-12-04T11:24:32;13.60;;;7.30;;
3309;SDS011;1667;53.238;10.394;2023-12-04T11:29:32;10.50;;;5.80;;
3309;SDS011;1667;53.238;10.394;2023-12-04T11:34:32;9.93;;;5.63;;
3309;SDS011;1667;53.238;10.394;2023-12-04T11:39:34;17.10;;;8.80;;
3309;SDS011;1667;53.238;10.394;2023-12-04T11:44:34;12.67;;;7.03;;
3309;SDS011;1667;53.238;10.394;2023-12-04T11:49:33;14.83;;;7.90;;
3309;SDS011;1667;53.238;10.394;2023-12-04T12:00:18;9.57;;;5.17;;
3309;SDS011;1667;53.238;10.394;2023-12-04T12:05:18;7.20;;;4.60;;
3309;SDS011;1667;53.238;10.394;2023-12-04T12:10:19;13.07;;;6.70;;
3309;SDS011;1667;53.238;10.394;2023-12-04T12:15:18;11.37;;;5.87;;
3309;SDS011;1667;53.238;10.394;2023-12-04T12:20:17;14.60;;;7.43;;
3309;SDS011;1667;53.238;10.394;2023-12-04T12:25:18;18.00;;;7.73;;
3309;SDS011;1667;53.238;10.394;2023-12-04T12:30:19;16.83;;;7.73;;
3309;SDS011;1667;53.238;10.394;2023-12-04T12:35:18;14.37;;;6.77;;
3309;SDS011;1667;53.238;10.394;2023-12-04T12:40:17;10.40;;;6.10;;
3309;SDS011;1667;53.238;10.394;2023-12-04T12:45:18;20.70;;;8.67;;
3309;SDS011;1667;53.238;10.394;2023-12-04T12:50:18;8.63;;;4.23;;
3309;SDS011;1667;53.238;10.394;2023-12-04T12:55:23;19.63;;;9.77;;
3309;SDS011;1667;53.238;10.394;2023-12-04T13:00:22;15.90;;;8.57;;
3309;SDS011;1667;53.238;10.394;2023-12-04T13:05:22;7.17;;;4.57;;
3309;SDS011;1667;53.238;10.394;2023-12-04T13:10:21;13.30;;;5.73;;
3309;SDS011;1667;53.238;10.394;2023-12-04T13:15:21;14.07;;;7.93;;
3309;SDS011;1667;53.238;10.394;2023-12-04T13:20:19;12.40;;;6.73;;
3309;SDS011;1667;53.238;10.394;2023-12-04T13:25:18;11.00;;;5.80;;
3309;SDS011;1667;53.238;10.394;2023-12-04T13:30:19;11.33;;;5.97;;
3309;SDS011;1667;53.238;10.394;2023-12-04T13:35:20;15.00;;;7.60;;
3309;SDS011;1667;53.238;10.394;2023-12-04T13:40:19;12.50;;;6.30;;
3309;SDS011;1667;53.238;10.394;2023-12-04T13:45:18;13.70;;;7.90;;
3309;SDS011;1667;53.238;10.394;2023-12-04T13:50:20;14.57;;;7.13;;
3309;SDS011;1667;53.238;10.394;2023-12-04T13:55:19;6.63;;;3.73;;
3309;SDS011;1667;53.238;10.394;2023-12-04T14:00:28;9.73;;;5.50;;
3309;SDS011;1667;53.238;10.394;2023-12-04T14:05:28;20.30;;;8.47;;
3309;SDS011;1667;53.238;10.394;2023-12-04T14:10:28;13.27;;;6.30;;
3309;SDS011;1667;53.238;10.394;2023-12-04T14:15:27;16.80;;;7.90;;
3309;SDS011;1667;53.238;10.394;2023-12-04T14:20:26;9.27;;;5.43;;
3309;SDS011;1667;53.238;10.394;2023-12-04T14:25:26;11.30;;;5.07;;
3309;SDS011;1667;53.238;10.394;2023-12-04T14:30:25;15.57;;;8.37;;
3309;SDS011;1667;53.238;10.394;2023-12-04T14:35:24;13.90;;;8.00;;
3309;SDS011;1667;53.238;10.394;2023-12-04T14:40:24;11.90;;;7.30;;
3309;SDS011;1667;53.238;10.394;2023-12-04T14:45:25;13.30;;;7.40;;
3309;SDS011;1667;53.238;10.394;2023-12-04T14:50:24;15.67;;;8.70;;
3309;SDS011;1667;53.238;10.394;2023-12-04T14:55:24;11.30;;;6.03;;
3309;SDS011;1667;53.238;10.394;2023-12-04T15:01:03;9.63;;;4.70;;
3309;SDS011;1667;53.238;10.394;2023-12-04T15:06:20;11.70;;;6.10;;
3309;SDS011;1667;53.238;10.394;2023-12-04T15:11:40;8.17;;;5.10;;
3309;SDS011;1667;53.238;10.394;2023-12-04T15:17:07;5.93;;;3.40;;
3309;SDS011;1667;53.238;10.394;2023-12-04T15:22:14;14.00;;;4.50;;
3309;SDS011;1667;53.238;10.394;2023-12-04T15:27:13;12.17;;;6.20;;
3309;SDS011;1667;53.238;10.394;2023-12-04T15:32:13;8.23;;;5.20;;
3309;SDS011;1667;53.238;10.394;2023-12-04T15:37:12;12.57;;;7.27;;
3309;SDS011;1667;53.238;10.394;2023-12-04T15:42:11;11.40;;;7.53;;
3309;SDS011;1667;53.238;10.394;2023-12-04T15:47:10;12.37;;;7.67;;
3309;SDS011;1667;53.238;10.394;2023-12-04T15:52:10;6.43;;;4.00;;
3309;SDS011;1667;53.238;10.394;2023-12-04T15:57:09;9.27;;;4.97;;
3309;SDS011;1667;53.238;10.394;2023-12-04T16:02:08;8.60;;;3.90;;
3309;SDS011;1667;53.238;10.394;2023-12-04T16:07:07;9.40;;;5.93;;
3309;SDS011;1667;53.238;10.394;2023-12-04T16:12:08;9.60;;;5.00;;
3309;SDS011;1667;53.238;10.394;2023-12-04T16:17:07;13.40;;;7.10;;
3309;SDS011;1667;53.238;10.394;2023-12-04T16:22:06;8.53;;;5.37;;
3309;SDS011;1667;53.238;10.394;2023-12-04T16:27:08;9.80;;;4.10;;
3309;SDS011;1667;53.238;10.394;2023-12-04T16:32:08;8.50;;;5.63;;
3309;SDS011;1667;53.238;10.394;2023-12-04T16:37:07;9.97;;;5.47;;
3309;SDS011;1667;53.238;10.394;2023-12-04T16:42:07;11.10;;;7.00;;
3309;SDS011;1667;53.238;10.394;2023-12-04T16:47:06;6.50;;;3.40;;
3309;SDS011;1667;53.238;10.394;2023-12-04T16:52:05;2.93;;;1.93;;
3309;SDS011;1667;53.238;10.394;2023-12-04T16:57:04;7.77;;;5.10;;
3309;SDS011;1667;53.238;10.394;2023-12-04T17:02:05;6.23;;;3.47;;
3309;SDS011;1667;53.238;10.394;2023-12-04T17:07:04;4.43;;;3.17;;
3309;SDS011;1667;53.238;10.394;2023-12-04T17:12:03;7.13;;;4.17;;
3309;SDS011;1667;53.238;10.394;2023-12-04T17:17:04;5.93;;;4.07;;
3309;SDS011;1667;53.238;10.394;2023-12-04T17:22:03;6.97;;;3.77;;
3309;SDS011;1667;53.238;10.394;2023-12-04T17:27:03;5.07;;;3.27;;
3309;SDS011;1667;53.238;10.394;2023-12-04T17:32:02;2.63;;;2.03;;
3309;SDS011;1667;53.238;10.394;2023-12-04T17:37:03;8.30;;;4.63;;
3309;SDS011;1667;53.238;10.394;2023-12-04T17:42:02;6.93;;;3.93;;
3309;SDS011;1667;53.238;10.394;2023-12-04T17:47:02;6.30;;;2.87;;
3309;SDS011;1667;53.238;10.394;2023-12-04T17:52:03;7.93;;;3.90;;
3309;SDS011;1667;53.238;10.394;2023-12-04T17:57:03;9.70;;;4.43;;
3309;SDS011;1667;53.238;10.394;2023-12-04T18:02:02;5.20;;;3.97;;
3309;SDS011;1667;53.238;10.394;2023-12-04T18:07:04;6.00;;;3.80;;
3309;SDS011;1667;53.238;10.394;2023-12-04T18:12:03;5.30;;;3.83;;
3309;SDS011;1667;53.238;10.394;2023-12-04T18:17:02;4.00;;;2.80;;
3309;SDS011;1667;53.238;10.394;2023-12-04T18:22:01;6.00;;;4.30;;
3309;SDS011;1667;53.238;10.394;2023-12-04T18:27:01;5.23;;;2.77;;
3309;SDS011;1667;53.238;10.394;2023-12-04T18:32:00;8.33;;;5.30;;
3309;SDS011;1667;53.238;10.394;2023-12-04T18:37:05;5.33;;;3.80;;
3309;SDS011;1667;53.238;10.394;2023-12-04T18:42:09;5.80;;;2.80;;
3309;SDS011;1667;53.238;10.394;2023-12-04T18:47:09;6.43;;;3.30;;
3309;SDS011;1667;53.238;10.394;2023-12-04T18:52:15;4.30;;;2.43;;
3309;SDS011;1667;53.238;10.394;2023-12-04T18:57:14;9.13;;;4.00;;
3309;SDS011;1667;53.238;10.394;2023-12-04T19:02:13;6.13;;;4.33;;
3309;SDS011;1667;53.238;10.394;2023-12-04T19:07:12;5.90;;;3.50;;
3309;SDS011;1667;53.238;10.394;2023-12-04T19:12:12;7.80;;;5.13;;
3309;SDS011;1667;53.238;10.394;2023-12-04T19:17:11;9.93;;;4.47;;
3309;SDS011;1667;53.238;10.394;2023-12-04T19:22:10;11.40;;;5.40;;
3309;SDS011;1667;53.238;10.394;2023-12-04T19:27:30;9.90;;;6.27;;
3309;SDS011;1667;53.238;10.394;2023-12-04T19:32:29;7.60;;;4.53;;
3309;SDS011;1667;53.238;10.394;2023-12-04T19:37:28;11.03;;;6.30;;
3309;SDS011;1667;53.238;10.394;2023-12-04T19:42:27;8.73;;;4.40;;
3309;SDS011;1667;53.238;10.394;2023-12-04T19:47:28;11.33;;;6.80;;
3309;SDS011;1667;53.238;10.394;2023-12-04T19:52:27;11.87;;;6.83;;
3309;SDS011;1667;53.238;10.394;2023-12-04T19:57:26;12.20;;;6.70;;
3309;SDS011;1667;53.238;10.394;2023-12-04T20:02:25;14.40;;;6.53;;
3309;SDS011;1667;53.238;10.394;2023-12-04T20:07:25;9.93;;;6.23;;
3309;SDS011;1667;53.238;10.394;2023-12-04T20:12:23;10.97;;;6.30;;
3309;SDS011;1667;53.238;10.394;2023-12-04T20:17:23;6.73;;;4.53;;
3309;SDS011;1667;53.238;10.394;2023-12-04T20:22:22;13.37;;;7.40;;
3309;SDS011;1667;53.238;10.394;2023-12-04T20:27:22;13.00;;;7.43;;
3309;SDS011;1667;53.238;10.394;2023-12-04T20:32:21;10.93;;;6.33;;
3309;SDS011;1667;53.238;10.394;2023-12-04T20:37:20;14.13;;;7.97;;
3309;SDS011;1667;53.238;10.394;2023-12-04T20:42:38;11.93;;;5.77;;
3309;SDS011;1667;53.238;10.394;2023-12-04T20:53:03;10.50;;;5.70;;
3309;SDS011;1667;53.238;10.394;2023-12-04T20:58:03;10.43;;;6.20;;
3309;SDS011;1667;53.238;10.394;2023-12-04T21:03:03;13.67;;;6.37;;
3309;SDS011;1667;53.238;10.394;2023-12-04T21:08:04;10.37;;;5.67;;
3309;SDS011;1667;53.238;10.394;2023-12-04T21:13:04;11.53;;;4.53;;
3309;SDS011;1667;53.238;10.394;2023-12-04T21:18:04;12.00;;;6.73;;
3309;SDS011;1667;53.238;10.394;2023-12-04T21:23:04;13.60;;;7.50;;
3309;SDS011;1667;53.238;10.394;2023-12-04T21:28:07;10.80;;;6.70;;
3309;SDS011;1667;53.238;10.394;2023-12-04T21:33:06;11.27;;;6.47;;
3309;SDS011;1667;53.238;10.394;2023-12-04T21:38:06;11.30;;;5.70;;
3309;SDS011;1667;53.238;10.394;2023-12-04T21:43:04;10.83;;;5.90;;
3309;SDS011;1667;53.238;10.394;2023-12-04T21:48:06;10.50;;;4.90;;
3309;SDS011;1667;53.238;10.394;2023-12-04T21:53:05;6.47;;;5.00;;
3309;SDS011;1667;53.238;10.394;2023-12-04T21:58:03;12.00;;;6.07;;
3309;SDS011;1667;53.238;10.394;2023-12-04T22:03:01;9.00;;;5.30;;
3309;SDS011;1667;53.238;10.394;2023-12-04T22:08:02;10.10;;;5.80;;
3309;SDS011;1667;53.238;10.394;2023-12-04T22:13:02;9.27;;;6.00;;
3309;SDS011;1667;53.238;10.394;2023-12-04T22:18:01;8.50;;;4.43;;
3309;SDS011;1667;53.238;10.394;2023-12-04T22:23:03;11.33;;;6.33;;
3309;SDS011;1667;53.238;10.394;2023-12-04T22:28:02;8.73;;;4.93;;
3309;SDS011;1667;53.238;10.394;2023-12-04T22:33:02;9.20;;;4.90;;
3309;SDS011;1667;53.238;10.394;2023-12-04T22:38:00;9.70;;;6.00;;
3309;SDS011;1667;53.238;10.394;2023-12-04T22:43:01;6.23;;;4.40;;
3309;SDS011;1667;53.238;10.394;2023-12-04T22:48:00;8.93;;;5.60;;
3309;SDS011;1667;53.238;10.394;2023-12-04T22:52:59;6.93;;;4.80;;
3309;SDS011;1667;53.238;10.394;2023-12-04T22:58:06;19.13;;;6.67;;
3309;SDS011;1667;53.238;10.394;2023-12-04T23:03:05;6.33;;;3.67;;
3309;SDS011;1667;53.238;10.394;2023-12-04T23:08:04;13.63;;;7.10;;
3309;SDS011;1667;53.238;10.394;2023-12-04T23:13:03;15.40;;;9.03;;
3309;SDS011;1667;53.238;10.394;2023-12-04T23:18:04;10.57;;;6.10;;
3309;SDS011;1667;53.238;10.394;2023-12-04T23:23:03;12.60;;;7.90;;
3309;SDS011;1667;53.238;10.394;2023-12-04T23:28:02;8.40;;;4.57;;
3309;SDS011;1667;53.238;10.394;2023-12-04T23:33:01;14.60;;;7.70;;
3309;SDS011;1667;53.238;10.394;2023-12-04T23:38:01;10.67;;;5.73;;
3309;SDS011;1667;53.238;10.394;2023-12-04T23:43:00;8.57;;;5.27;;
3309;SDS011;1667;53.238;10.394;2023-12-04T23:47:59;11.30;;;6.53;;
3309;SDS011;1667;53.238;10.394;2023-12-04T23:52:59;6.97;;;4.60;;
3309;SDS011;1667;53.238;10.394;2023-12-04T23:57:58;13.53;;;7.27;;
